Time,TemperatureF,DewpointF,PressureIn,WindDirection,WindDirectionDegrees,WindSpeedMPH,WindSpeedGustMPH,Humidity,HourlyPrecipIn,Conditions,Clouds,dailyrainin,SoftwareType,DateUTC
2013-07-05 00:34:00,63.0,-99.9,-100.00,ENE,76,3.0,4.0,-999,-99.99,,,-99.99,,2013-07-05 06:34:00,
2013-07-05 00:40:00,61.0,-99.9,-100.00,NE,43,2.0,3.0,-999,-99.99,,,-99.99,,2013-07-05 06:40:00,
2013-07-05 01:34:00,61.0,-99.9,-100.00,NE,43,2.0,3.0,-999,-99.99,,,-99.99,,2013-07-05 07:34:00,
2013-07-05 01:40:00,59.0,-99.9,-100.00,ENE,71,0.0,1.0,-999,-99.99,,,-99.99,,2013-07-05 07:40:00,
2013-07-05 02:23:00,59.0,-99.9,-100.00,ENE,71,0.0,1.0,-999,-99.99,,,-99.99,,2013-07-05 08:23:00,
2013-07-05 02:33:00,59.0,-99.9,-100.00,ENE,71,0.0,1.0,-999,-99.99,,,-99.99,,2013-07-05 08:33:00,
2013-07-05 02:40:00,57.0,-99.9,-100.00,NNE,24,0.0,1.0,-999,-99.99,,,-99.99,,2013-07-05 08:40:00,
2013-07-05 03:40:00,57.0,-99.9,-100.00,East,86,3.0,3.0,-999,-99.99,,,-99.99,,2013-07-05 09:40:00,
2013-07-05 04:28:00,57.0,-99.9,-100.00,East,86,3.0,3.0,-999,-99.99,,,-99.99,,2013-07-05 10:28:00,
2013-07-05 04:39:00,57.0,-99.9,-100.00,East,86,3.0,3.0,-999,-99.99,,,-99.99,,2013-07-05 10:39:00,
2013-07-05 04:40:00,55.0,-99.9,-100.00,North,3,3.0,5.0,-999,-99.99,,,-99.99,,2013-07-05 10:40:00,
2013-07-05 05:35:00,55.0,-99.9,-100.00,NNE,19,2.0,3.0,-999,-99.99,,,-99.99,,2013-07-05 11:35:00,
2013-07-05 05:39:00,55.0,-99.9,-100.00,North,3,3.0,5.0,-999,-99.99,,,-99.99,,2013-07-05 11:39:00,
2013-07-05 06:35:00,54.0,-99.9,-100.00,NNE,18,3.0,4.0,-999,-99.99,,,-99.99,,2013-07-05 12:35:00,
2013-07-05 07:35:00,57.0,-99.9,-100.00,East,94,1.0,2.0,-999,-99.99,,,-99.99,,2013-07-05 13:35:00,
2013-07-05 09:26:00,63.0,-99.9,-100.00,ENE,64,3.0,5.0,-999,-99.99,,,-99.99,,2013-07-05 15:26:00,
2013-07-05 09:34:00,63.0,-99.9,-100.00,ENE,64,3.0,5.0,-999,-99.99,,,-99.99,,2013-07-05 15:34:00,
2013-07-05 10:33:00,66.0,-99.9,-100.00,ENE,69,10.0,11.0,-999,-99.99,,,-99.99,,2013-07-05 16:33:00,
2013-07-05 11:33:00,68.0,-99.9,-100.00,East,95,10.0,11.0,-999,-99.99,,,-99.99,,2013-07-05 17:33:00,
2013-07-05 12:22:00,72.0,-99.9,-100.00,East,89,6.0,11.0,-999,-99.99,,,-99.99,,2013-07-05 18:22:00,
2013-07-05 13:34:00,73.0,-99.9,-100.00,East,96,7.0,9.0,-999,-99.99,,,-99.99,,2013-07-05 19:34:00,
2013-07-05 14:23:00,70.0,-99.9,-100.00,NNE,30,12.0,14.0,-999,-99.99,,,-99.99,,2013-07-05 20:23:00,
2013-07-05 14:33:00,70.0,-99.9,-100.00,NNE,30,12.0,14.0,-999,-99.99,,,-99.99,,2013-07-05 20:33:00,
2013-07-05 15:34:00,68.0,-99.9,-100.00,ENE,78,4.0,5.0,-999,-99.99,,,-99.99,,2013-07-05 21:34:00,
2013-07-05 16:34:00,59.0,-99.9,-100.00,East,86,11.0,13.0,-999,-99.99,,,-99.99,,2013-07-05 22:34:00,
2013-07-05 17:23:00,55.0,-99.9,-100.00,NE,53,1.0,1.0,-999,-99.99,,,-99.99,,2013-07-05 23:23:00,
2013-07-05 17:32:00,55.0,-99.9,-100.00,NE,53,1.0,1.0,-999,-99.99,,,-99.99,,2013-07-05 23:32:00,
2013-07-05 18:22:00,57.0,-99.9,-100.00,ENE,77,1.0,1.0,-999,-99.99,,,-99.99,,2013-07-06 00:22:00,
2013-07-05 18:33:00,57.0,-99.9,-100.00,ENE,77,1.0,1.0,-999,-99.99,,,-99.99,,2013-07-06 00:33:00,
2013-07-05 19:30:00,64.0,-99.9,-100.00,NNE,27,1.0,2.0,-999,-99.99,,,-99.99,,2013-07-06 01:30:00,
2013-07-05 19:33:00,61.0,-99.9,-100.00,NNE,13,2.0,2.0,-999,-99.99,,,-99.99,,2013-07-06 01:33:00,
2013-07-05 20:22:00,64.0,-99.9,-100.00,NNE,27,1.0,2.0,-999,-99.99,,,-99.99,,2013-07-06 02:22:00,
2013-07-05 20:30:00,61.0,-99.9,-100.00,North,1,2.0,2.0,-999,-99.99,,,-99.99,,2013-07-06 02:30:00,
2013-07-05 21:22:00,61.0,-99.9,-100.00,North,1,2.0,2.0,-999,-99.99,,,-99.99,,2013-07-06 03:22:00,
2013-07-05 21:30:00,59.0,-99.9,-100.00,NE,45,0.0,1.0,-999,-99.99,,,-99.99,,2013-07-06 03:30:00,
2013-07-05 22:30:00,55.0,-99.9,-100.00,ENE,68,0.0,0.0,-999,-99.99,,,-99.99,,2013-07-06 04:30:00,
2013-07-05 23:30:00,54.0,-99.9,-100.00,North,5,1.0,2.0,-999,-99.99,,,-99.99,,2013-07-06 05:30:00,